Sugar Land Regional Airport Houston US
ICAO: KSGR
IATA: SGR
Category: Medium
Scheduled Services: No

Elevation: 82 ft
TransAlt. 18000 ft.

Airport Communications:
HOUSTON APP/DEP:123.8
ASOS:118.125
CTAF:118.65
GND/CLNC DEL:121.4
TWR:118.65
UNICOM:122.95

KSGR Zoom In..

Runways:

(A) RW 17 length 8000 ft width 100 ft
---- / hdg 170

(B) RW 35 length 8000 ft width 100 ft
ILS 110.70 / hdg 350

Location; KSGR
Day. 29 / Time. 08.53 Zulu
* Altimeter: 29.99
* Temperature: 21° c. 69.8°f.
* Wind from: 000° Speed 00 kn.
Dewpoint: 21° c.
Visibility: 10 Statute Miles.
Clouds: Clear (automated report).

KSGR 290853Z AUTO 00000KT 10SM CLR 21/21 A2999 RMK AO2 SLP157 T02110211 53000


Wind - Calm.

 
 
jpsmedia worldairports.se 2020   terms of use